sensor_id;sensor_type;location;lat;lon;timestamp;temperature;humidity
76211;DHT22;65003;49.518;11.280;2023-12-20T00:02:15;6.70;99.90
76211;DHT22;65003;49.518;11.280;2023-12-20T00:04:42;6.70;99.90
76211;DHT22;65003;49.518;11.280;2023-12-20T00:07:08;6.70;99.90
76211;DHT22;65003;49.518;11.280;2023-12-20T00:09:35;6.70;99.90
76211;DHT22;65003;49.518;11.280;2023-12-20T00:12:01;6.70;99.90
76211;DHT22;65003;49.518;11.280;2023-12-20T00:14:28;6.70;99.90
76211;DHT22;65003;49.518;11.280;2023-12-20T00:16:54;6.70;99.90
76211;DHT22;65003;49.518;11.280;2023-12-20T00:19:21;6.80;99.90
76211;DHT22;65003;49.518;11.280;2023-12-20T00:21:48;6.80;99.90
76211;DHT22;65003;49.518;11.280;2023-12-20T00:24:14;6.80;99.90
76211;DHT22;65003;49.518;11.280;2023-12-20T00:26:41;6.80;99.90
76211;DHT22;65003;49.518;11.280;2023-12-20T00:29:07;6.80;99.90
76211;DHT22;65003;49.518;11.280;2023-12-20T00:31:34;6.80;99.90
76211;DHT22;65003;49.518;11.280;2023-12-20T00:34:01;6.90;99.90
76211;DHT22;65003;49.518;11.280;2023-12-20T00:36:27;6.90;99.90
76211;DHT22;65003;49.518;11.280;2023-12-20T00:38:54;6.90;99.90
76211;DHT22;65003;49.518;11.280;2023-12-20T00:41:20;6.90;99.90
76211;DHT22;65003;49.518;11.280;2023-12-20T00:43:47;6.90;99.90
76211;DHT22;65003;49.518;11.280;2023-12-20T00:46:13;6.90;99.90
76211;DHT22;65003;49.518;11.280;2023-12-20T00:48:40;7.00;99.90
76211;DHT22;65003;49.518;11.280;2023-12-20T00:51:07;7.10;99.90
76211;DHT22;65003;49.518;11.280;2023-12-20T00:53:34;7.10;99.90
76211;DHT22;65003;49.518;11.280;2023-12-20T00:56:01;7.10;99.90
76211;DHT22;65003;49.518;11.280;2023-12-20T00:58:27;7.20;99.90
76211;DHT22;65003;49.518;11.280;2023-12-20T01:00:54;7.20;99.90
76211;DHT22;65003;49.518;11.280;2023-12-20T01:03:20;7.20;99.90
76211;DHT22;65003;49.518;11.280;2023-12-20T01:05:47;7.20;99.90
76211;DHT22;65003;49.518;11.280;2023-12-20T01:08:13;7.30;99.90
76211;DHT22;65003;49.518;11.280;2023-12-20T01:10:40;7.30;99.90
76211;DHT22;65003;49.518;11.280;2023-12-20T01:13:07;7.30;99.90
76211;DHT22;65003;49.518;11.280;2023-12-20T01:15:33;7.20;99.90
76211;DHT22;65003;49.518;11.280;2023-12-20T01:18:00;7.20;99.90
76211;DHT22;65003;49.518;11.280;2023-12-20T01:20:26;7.20;99.90
76211;DHT22;65003;49.518;11.280;2023-12-20T01:22:53;7.10;99.90
76211;DHT22;65003;49.518;11.280;2023-12-20T01:25:19;7.00;99.90
76211;DHT22;65003;49.518;11.280;2023-12-20T01:27:46;7.00;99.90
76211;DHT22;65003;49.518;11.280;2023-12-20T01:30:13;7.00;99.90
76211;DHT22;65003;49.518;11.280;2023-12-20T01:32:40;6.90;99.90
76211;DHT22;65003;49.518;11.280;2023-12-20T01:35:06;6.90;99.90
76211;DHT22;65003;49.518;11.280;2023-12-20T01:37:33;6.80;99.90
76211;DHT22;65003;49.518;11.280;2023-12-20T01:40:00;6.80;99.90
76211;DHT22;65003;49.518;11.280;2023-12-20T01:42:26;6.80;99.90
76211;DHT22;65003;49.518;11.280;2023-12-20T01:44:53;6.80;99.90
76211;DHT22;65003;49.518;11.280;2023-12-20T01:47:19;6.80;99.90
76211;DHT22;65003;49.518;11.280;2023-12-20T01:49:46;6.90;99.90
76211;DHT22;65003;49.518;11.280;2023-12-20T01:52:12;6.80;99.90
76211;DHT22;65003;49.518;11.280;2023-12-20T01:54:39;6.80;99.90
76211;DHT22;65003;49.518;11.280;2023-12-20T01:57:06;6.80;99.90
76211;DHT22;65003;49.518;11.280;2023-12-20T01:59:32;6.80;99.90
76211;DHT22;65003;49.518;11.280;2023-12-20T02:01:59;6.80;99.90
76211;DHT22;65003;49.518;11.280;2023-12-20T02:04:25;6.70;99.90
76211;DHT22;65003;49.518;11.280;2023-12-20T02:06:52;6.70;99.90
76211;DHT22;65003;49.518;11.280;2023-12-20T02:09:19;6.70;99.90
76211;DHT22;65003;49.518;11.280;2023-12-20T02:11:45;6.70;99.90
76211;DHT22;65003;49.518;11.280;2023-12-20T02:14:12;6.70;99.90
76211;DHT22;65003;49.518;11.280;2023-12-20T02:16:38;6.70;99.90
76211;DHT22;65003;49.518;11.280;2023-12-20T02:19:05;6.70;99.90
76211;DHT22;65003;49.518;11.280;2023-12-20T02:21:32;6.50;99.90
76211;DHT22;65003;49.518;11.280;2023-12-20T02:23:59;6.50;99.90
76211;DHT22;65003;49.518;11.280;2023-12-20T02:26:25;6.60;99.90
76211;DHT22;65003;49.518;11.280;2023-12-20T02:28:52;6.60;99.90
76211;DHT22;65003;49.518;11.280;2023-12-20T02:31:20;6.50;99.90
76211;DHT22;65003;49.518;11.280;2023-12-20T02:33:45;6.40;99.90
76211;DHT22;65003;49.518;11.280;2023-12-20T02:36:12;6.40;99.90
76211;DHT22;65003;49.518;11.280;2023-12-20T02:38:38;6.40;99.90
76211;DHT22;65003;49.518;11.280;2023-12-20T02:41:05;6.40;99.90
76211;DHT22;65003;49.518;11.280;2023-12-20T02:43:31;6.30;99.90
76211;DHT22;65003;49.518;11.280;2023-12-20T02:45:58;6.30;99.90
76211;DHT22;65003;49.518;11.280;2023-12-20T02:48:25;6.30;99.90
76211;DHT22;65003;49.518;11.280;2023-12-20T02:50:51;6.40;99.90
76211;DHT22;65003;49.518;11.280;2023-12-20T02:53:18;6.50;99.90
76211;DHT22;65003;49.518;11.280;2023-12-20T02:55:44;6.50;99.90
76211;DHT22;65003;49.518;11.280;2023-12-20T02:58:11;6.40;99.90
76211;DHT22;65003;49.518;11.280;2023-12-20T03:00:38;6.20;99.90
76211;DHT22;65003;49.518;11.280;2023-12-20T03:03:04;6.10;99.90
76211;DHT22;65003;49.518;11.280;2023-12-20T03:05:31;6.10;99.90
76211;DHT22;65003;49.518;11.280;2023-12-20T03:07:57;6.00;99.90
76211;DHT22;65003;49.518;11.280;2023-12-20T03:10:24;6.00;99.90
76211;DHT22;65003;49.518;11.280;2023-12-20T03:12:50;6.10;99.90
76211;DHT22;65003;49.518;11.280;2023-12-20T03:15:17;6.10;99.90
76211;DHT22;65003;49.518;11.280;2023-12-20T03:17:44;6.00;99.90
76211;DHT22;65003;49.518;11.280;2023-12-20T03:20:10;6.00;99.90
76211;DHT22;65003;49.518;11.280;2023-12-20T03:22:37;6.00;99.90
76211;DHT22;65003;49.518;11.280;2023-12-20T03:25:03;6.00;99.90
76211;DHT22;65003;49.518;11.280;2023-12-20T03:27:30;6.00;99.90
76211;DHT22;65003;49.518;11.280;2023-12-20T03:29:57;6.00;99.90
76211;DHT22;65003;49.518;11.280;2023-12-20T03:32:23;5.90;99.90
76211;DHT22;65003;49.518;11.280;2023-12-20T03:34:50;5.80;99.90
76211;DHT22;65003;49.518;11.280;2023-12-20T03:37:16;5.80;99.90
76211;DHT22;65003;49.518;11.280;2023-12-20T03:39:43;6.50;99.90
76211;DHT22;65003;49.518;11.280;2023-12-20T03:42:10;5.70;99.90
76211;DHT22;65003;49.518;11.280;2023-12-20T03:44:38;5.70;99.90
76211;DHT22;65003;49.518;11.280;2023-12-20T03:47:03;5.70;99.90
76211;DHT22;65003;49.518;11.280;2023-12-20T03:49:29;5.60;99.90
76211;DHT22;65003;49.518;11.280;2023-12-20T03:51:56;5.60;99.90
76211;DHT22;65003;49.518;11.280;2023-12-20T03:54:23;5.70;99.90
76211;DHT22;65003;49.518;11.280;2023-12-20T03:56:49;5.70;99.90
76211;DHT22;65003;49.518;11.280;2023-12-20T03:59:16;5.70;99.90
76211;DHT22;65003;49.518;11.280;2023-12-20T04:01:43;5.70;99.90
76211;DHT22;65003;49.518;11.280;2023-12-20T04:04:10;5.70;99.90
76211;DHT22;65003;49.518;11.280;2023-12-20T04:06:37;5.70;99.90
76211;DHT22;65003;49.518;11.280;2023-12-20T04:09:03;5.70;99.90
76211;DHT22;65003;49.518;11.280;2023-12-20T04:11:30;5.70;99.90
76211;DHT22;65003;49.518;11.280;2023-12-20T04:13:56;5.70;99.90
76211;DHT22;65003;49.518;11.280;2023-12-20T04:16:23;5.70;99.90
76211;DHT22;65003;49.518;11.280;2023-12-20T04:18:49;5.70;99.90
76211;DHT22;65003;49.518;11.280;2023-12-20T04:21:16;5.80;99.90
76211;DHT22;65003;49.518;11.280;2023-12-20T04:23:42;5.80;99.90
76211;DHT22;65003;49.518;11.280;2023-12-20T04:26:09;5.70;99.90
76211;DHT22;65003;49.518;11.280;2023-12-20T04:28:36;5.80;99.90
76211;DHT22;65003;49.518;11.280;2023-12-20T04:31:02;5.70;99.90
76211;DHT22;65003;49.518;11.280;2023-12-20T04:33:29;5.70;99.90
76211;DHT22;65003;49.518;11.280;2023-12-20T04:35:55;5.70;99.90
76211;DHT22;65003;49.518;11.280;2023-12-20T04:38:22;5.70;99.90
76211;DHT22;65003;49.518;11.280;2023-12-20T04:40:49;5.70;99.90
76211;DHT22;65003;49.518;11.280;2023-12-20T04:43:15;5.80;99.90
76211;DHT22;65003;49.518;11.280;2023-12-20T04:45:42;5.70;99.90
76211;DHT22;65003;49.518;11.280;2023-12-20T04:48:08;5.70;99.90
76211;DHT22;65003;49.518;11.280;2023-12-20T04:50:35;5.70;99.90
76211;DHT22;65003;49.518;11.280;2023-12-20T04:53:02;5.70;99.90
76211;DHT22;65003;49.518;11.280;2023-12-20T04:55:28;5.70;99.90
76211;DHT22;65003;49.518;11.280;2023-12-20T04:57:55;5.70;99.90
76211;DHT22;65003;49.518;11.280;2023-12-20T05:00:21;5.70;99.90
76211;DHT22;65003;49.518;11.280;2023-12-20T05:02:48;5.80;99.90
76211;DHT22;65003;49.518;11.280;2023-12-20T05:05:14;5.80;99.90
76211;DHT22;65003;49.518;11.280;2023-12-20T05:07:41;5.90;99.90
76211;DHT22;65003;49.518;11.280;2023-12-20T05:10:08;5.90;99.90
76211;DHT22;65003;49.518;11.280;2023-12-20T05:12:35;5.80;99.90
76211;DHT22;65003;49.518;11.280;2023-12-20T05:15:01;5.80;99.90
76211;DHT22;65003;49.518;11.280;2023-12-20T05:17:28;5.80;99.90
76211;DHT22;65003;49.518;11.280;2023-12-20T05:19:54;5.90;99.90
76211;DHT22;65003;49.518;11.280;2023-12-20T05:22:22;5.80;99.90
76211;DHT22;65003;49.518;11.280;2023-12-20T05:24:49;5.90;99.90
76211;DHT22;65003;49.518;11.280;2023-12-20T05:27:15;5.90;99.90
76211;DHT22;65003;49.518;11.280;2023-12-20T05:29:42;5.90;99.90
76211;DHT22;65003;49.518;11.280;2023-12-20T05:32:09;5.80;99.90
76211;DHT22;65003;49.518;11.280;2023-12-20T05:34:35;5.90;99.90
76211;DHT22;65003;49.518;11.280;2023-12-20T05:37:02;5.90;99.90
76211;DHT22;65003;49.518;11.280;2023-12-20T05:39:28;5.90;99.90
76211;DHT22;65003;49.518;11.280;2023-12-20T05:41:55;5.90;99.90
76211;DHT22;65003;49.518;11.280;2023-12-20T05:44:21;5.90;99.90
76211;DHT22;65003;49.518;11.280;2023-12-20T05:46:48;5.90;99.90
76211;DHT22;65003;49.518;11.280;2023-12-20T05:49:15;5.80;99.90
76211;DHT22;65003;49.518;11.280;2023-12-20T05:51:41;5.80;99.90
76211;DHT22;65003;49.518;11.280;2023-12-20T05:54:09;5.90;99.90
76211;DHT22;65003;49.518;11.280;2023-12-20T05:56:34;5.90;99.90
76211;DHT22;65003;49.518;11.280;2023-12-20T05:59:01;6.00;99.90
76211;DHT22;65003;49.518;11.280;2023-12-20T06:01:28;6.00;99.90
76211;DHT22;65003;49.518;11.280;2023-12-20T06:03:54;6.20;99.90
76211;DHT22;65003;49.518;11.280;2023-12-20T06:06:21;6.40;99.90
76211;DHT22;65003;49.518;11.280;2023-12-20T06:08:47;6.50;99.90
76211;DHT22;65003;49.518;11.280;2023-12-20T06:11:14;6.50;99.90
76211;DHT22;65003;49.518;11.280;2023-12-20T06:13:40;6.50;99.90
76211;DHT22;65003;49.518;11.280;2023-12-20T06:16:07;6.50;99.90
76211;DHT22;65003;49.518;11.280;2023-12-20T06:18:34;6.50;99.90
76211;DHT22;65003;49.518;11.280;2023-12-20T06:21:00;6.60;99.90
76211;DHT22;65003;49.518;11.280;2023-12-20T06:23:27;6.80;99.90
76211;DHT22;65003;49.518;11.280;2023-12-20T06:25:53;6.90;99.90
76211;DHT22;65003;49.518;11.280;2023-12-20T06:28:20;6.80;99.90
76211;DHT22;65003;49.518;11.280;2023-12-20T06:30:46;6.80;99.90
76211;DHT22;65003;49.518;11.280;2023-12-20T06:33:13;6.90;99.90
76211;DHT22;65003;49.518;11.280;2023-12-20T06:35:40;6.90;99.90
76211;DHT22;65003;49.518;11.280;2023-12-20T06:38:06;6.80;99.90
76211;DHT22;65003;49.518;11.280;2023-12-20T06:40:33;6.80;99.90
76211;DHT22;65003;49.518;11.280;2023-12-20T06:42:59;6.80;99.90
76211;DHT22;65003;49.518;11.280;2023-12-20T06:45:26;6.80;99.90
76211;DHT22;65003;49.518;11.280;2023-12-20T06:47:53;6.70;99.90
76211;DHT22;65003;49.518;11.280;2023-12-20T06:50:19;6.70;99.90
76211;DHT22;65003;49.518;11.280;2023-12-20T06:52:46;6.70;99.90
76211;DHT22;65003;49.518;11.280;2023-12-20T06:55:13;6.70;99.90
76211;DHT22;65003;49.518;11.280;2023-12-20T06:57:39;6.70;99.90
76211;DHT22;65003;49.518;11.280;2023-12-20T07:00:06;6.80;99.90
76211;DHT22;65003;49.518;11.280;2023-12-20T07:02:33;6.80;99.90
76211;DHT22;65003;49.518;11.280;2023-12-20T07:05:00;6.80;99.90
76211;DHT22;65003;49.518;11.280;2023-12-20T07:07:26;6.80;99.90
76211;DHT22;65003;49.518;11.280;2023-12-20T07:09:53;6.80;99.90
76211;DHT22;65003;49.518;11.280;2023-12-20T07:12:19;6.70;99.90
76211;DHT22;65003;49.518;11.280;2023-12-20T07:14:46;6.70;99.90
76211;DHT22;65003;49.518;11.280;2023-12-20T07:17:13;6.70;99.90
76211;DHT22;65003;49.518;11.280;2023-12-20T07:19:39;6.60;99.90
76211;DHT22;65003;49.518;11.280;2023-12-20T07:22:06;6.70;99.90
76211;DHT22;65003;49.518;11.280;2023-12-20T07:24:32;6.70;99.90
76211;DHT22;65003;49.518;11.280;2023-12-20T07:26:59;6.80;99.90
76211;DHT22;65003;49.518;11.280;2023-12-20T07:29:25;6.80;99.90
76211;DHT22;65003;49.518;11.280;2023-12-20T07:31:53;6.90;99.90
76211;DHT22;65003;49.518;11.280;2023-12-20T07:34:20;7.00;99.90
76211;DHT22;65003;49.518;11.280;2023-12-20T07:36:46;7.00;99.90
76211;DHT22;65003;49.518;11.280;2023-12-20T07:39:13;7.00;99.90
76211;DHT22;65003;49.518;11.280;2023-12-20T07:41:39;6.90;99.90
76211;DHT22;65003;49.518;11.280;2023-12-20T07:44:06;6.90;99.90
76211;DHT22;65003;49.518;11.280;2023-12-20T07:46:32;6.90;99.90
76211;DHT22;65003;49.518;11.280;2023-12-20T07:48:59;6.80;99.90
76211;DHT22;65003;49.518;11.280;2023-12-20T07:51:25;6.90;99.90
76211;DHT22;65003;49.518;11.280;2023-12-20T07:53:52;6.90;99.90
76211;DHT22;65003;49.518;11.280;2023-12-20T07:56:19;6.90;99.90
76211;DHT22;65003;49.518;11.280;2023-12-20T07:58:45;6.90;99.90
76211;DHT22;65003;49.518;11.280;2023-12-20T08:01:12;6.90;99.90
76211;DHT22;65003;49.518;11.280;2023-12-20T08:03:38;6.90;99.90
76211;DHT22;65003;49.518;11.280;2023-12-20T08:06:05;6.90;99.90
76211;DHT22;65003;49.518;11.280;2023-12-20T08:08:32;6.90;99.90
76211;DHT22;65003;49.518;11.280;2023-12-20T08:10:58;6.90;99.90
76211;DHT22;65003;49.518;11.280;2023-12-20T08:13:25;7.00;99.90
76211;DHT22;65003;49.518;11.280;2023-12-20T08:15:52;6.90;99.90
76211;DHT22;65003;49.518;11.280;2023-12-20T08:18:18;6.90;99.90
76211;DHT22;65003;49.518;11.280;2023-12-20T08:20:44;6.90;99.90
76211;DHT22;65003;49.518;11.280;2023-12-20T08:23:13;6.90;99.90
76211;DHT22;65003;49.518;11.280;2023-12-20T08:25:38;6.90;99.90
76211;DHT22;65003;49.518;11.280;2023-12-20T08:28:04;6.90;99.90
76211;DHT22;65003;49.518;11.280;2023-12-20T08:30:31;7.00;99.90
76211;DHT22;65003;49.518;11.280;2023-12-20T08:32:59;6.90;99.90
76211;DHT22;65003;49.518;11.280;2023-12-20T08:35:26;6.90;99.90
76211;DHT22;65003;49.518;11.280;2023-12-20T08:37:53;6.90;99.90
76211;DHT22;65003;49.518;11.280;2023-12-20T08:40:19;6.80;99.90
76211;DHT22;65003;49.518;11.280;2023-12-20T08:42:46;6.80;99.90
76211;DHT22;65003;49.518;11.280;2023-12-20T08:45:12;6.60;99.90
76211;DHT22;65003;49.518;11.280;2023-12-20T08:47:39;6.50;99.90
76211;DHT22;65003;49.518;11.280;2023-12-20T08:50:06;6.50;99.90
76211;DHT22;65003;49.518;11.280;2023-12-20T08:52:33;6.60;99.90
76211;DHT22;65003;49.518;11.280;2023-12-20T08:54:59;6.60;99.90
76211;DHT22;65003;49.518;11.280;2023-12-20T08:57:26;6.60;99.90
76211;DHT22;65003;49.518;11.280;2023-12-20T08:59:53;6.60;99.90
76211;DHT22;65003;49.518;11.280;2023-12-20T09:02:19;6.50;99.90
76211;DHT22;65003;49.518;11.280;2023-12-20T09:04:46;6.40;99.90
76211;DHT22;65003;49.518;11.280;2023-12-20T09:07:23;6.40;99.90
76211;DHT22;65003;49.518;11.280;2023-12-20T09:09:49;6.50;99.90
76211;DHT22;65003;49.518;11.280;2023-12-20T09:12:16;6.70;99.90
76211;DHT22;65003;49.518;11.280;2023-12-20T09:14:42;6.90;99.90
76211;DHT22;65003;49.518;11.280;2023-12-20T09:17:08;7.00;99.90
76211;DHT22;65003;49.518;11.280;2023-12-20T09:19:35;7.10;99.90
76211;DHT22;65003;49.518;11.280;2023-12-20T09:22:02;7.20;99.90
76211;DHT22;65003;49.518;11.280;2023-12-20T09:24:28;7.20;99.90
76211;DHT22;65003;49.518;11.280;2023-12-20T09:26:55;7.30;99.90
76211;DHT22;65003;49.518;11.280;2023-12-20T09:29:21;7.30;99.90
76211;DHT22;65003;49.518;11.280;2023-12-20T09:31:48;7.30;99.90
76211;DHT22;65003;49.518;11.280;2023-12-20T09:34:15;7.20;99.90
76211;DHT22;65003;49.518;11.280;2023-12-20T09:36:41;7.30;99.90
76211;DHT22;65003;49.518;11.280;2023-12-20T09:39:08;7.40;99.90
76211;DHT22;65003;49.518;11.280;2023-12-20T09:41:36;7.60;99.90
76211;DHT22;65003;49.518;11.280;2023-12-20T09:44:01;8.10;99.90
76211;DHT22;65003;49.518;11.280;2023-12-20T09:46:28;8.80;99.90
76211;DHT22;65003;49.518;11.280;2023-12-20T09:48:54;9.50;99.90
76211;DHT22;65003;49.518;11.280;2023-12-20T09:51:21;10.10;99.80
76211;DHT22;65003;49.518;11.280;2023-12-20T09:53:47;10.40;97.90
76211;DHT22;65003;49.518;11.280;2023-12-20T09:56:14;10.80;97.80
76211;DHT22;65003;49.518;11.280;2023-12-20T09:58:40;10.80;96.80
76211;DHT22;65003;49.518;11.280;2023-12-20T10:01:07;10.50;96.90
76211;DHT22;65003;49.518;11.280;2023-12-20T10:03:34;10.20;97.30
76211;DHT22;65003;49.518;11.280;2023-12-20T10:06:00;9.90;97.30
76211;DHT22;65003;49.518;11.280;2023-12-20T10:08:30;9.50;98.40
76211;DHT22;65003;49.518;11.280;2023-12-20T10:10:56;9.00;98.80
76211;DHT22;65003;49.518;11.280;2023-12-20T10:13:23;8.50;99.90
76211;DHT22;65003;49.518;11.280;2023-12-20T10:15:49;8.40;99.90
76211;DHT22;65003;49.518;11.280;2023-12-20T10:18:16;8.30;99.90
76211;DHT22;65003;49.518;11.280;2023-12-20T10:20:43;8.20;99.90
76211;DHT22;65003;49.518;11.280;2023-12-20T10:23:09;8.20;99.90
76211;DHT22;65003;49.518;11.280;2023-12-20T10:25:36;8.10;99.90
76211;DHT22;65003;49.518;11.280;2023-12-20T10:28:09;8.00;99.90
76211;DHT22;65003;49.518;11.280;2023-12-20T10:30:35;8.00;99.90
76211;DHT22;65003;49.518;11.280;2023-12-20T10:33:01;7.90;99.90
76211;DHT22;65003;49.518;11.280;2023-12-20T10:35:28;7.80;99.90
76211;DHT22;65003;49.518;11.280;2023-12-20T10:37:55;7.60;99.90
76211;DHT22;65003;49.518;11.280;2023-12-20T10:40:21;7.50;99.90
76211;DHT22;65003;49.518;11.280;2023-12-20T10:42:48;7.40;99.90
76211;DHT22;65003;49.518;11.280;2023-12-20T10:45:14;7.40;99.90
76211;DHT22;65003;49.518;11.280;2023-12-20T10:47:41;7.40;99.90
76211;DHT22;65003;49.518;11.280;2023-12-20T10:50:08;7.40;99.90
76211;DHT22;65003;49.518;11.280;2023-12-20T10:52:34;7.30;99.90
76211;DHT22;65003;49.518;11.280;2023-12-20T10:55:01;7.30;99.90
76211;DHT22;65003;49.518;11.280;2023-12-20T10:57:28;7.20;99.90
76211;DHT22;65003;49.518;11.280;2023-12-20T10:59:54;7.10;99.90
76211;DHT22;65003;49.518;11.280;2023-12-20T11:02:21;7.10;99.90
76211;DHT22;65003;49.518;11.280;2023-12-20T11:04:50;7.00;99.90
76211;DHT22;65003;49.518;11.280;2023-12-20T11:07:25;7.00;99.90
76211;DHT22;65003;49.518;11.280;2023-12-20T11:09:54;7.00;99.90
76211;DHT22;65003;49.518;11.280;2023-12-20T11:12:18;7.00;99.90
76211;DHT22;65003;49.518;11.280;2023-12-20T11:14:48;7.00;99.90
76211;DHT22;65003;49.518;11.280;2023-12-20T11:17:14;7.10;99.90
76211;DHT22;65003;49.518;11.280;2023-12-20T11:22:34;7.30;99.90
76211;DHT22;65003;49.518;11.280;2023-12-20T11:25:06;7.30;99.90
76211;DHT22;65003;49.518;11.280;2023-12-20T11:27:32;7.40;99.90
76211;DHT22;65003;49.518;11.280;2023-12-20T11:29:59;7.40;99.90
76211;DHT22;65003;49.518;11.280;2023-12-20T11:32:29;7.50;99.90
76211;DHT22;65003;49.518;11.280;2023-12-20T11:35:00;7.50;99.90
76211;DHT22;65003;49.518;11.280;2023-12-20T11:37:30;7.50;99.90
76211;DHT22;65003;49.518;11.280;2023-12-20T11:40:03;7.40;99.90
76211;DHT22;65003;49.518;11.280;2023-12-20T11:42:44;7.40;99.90
76211;DHT22;65003;49.518;11.280;2023-12-20T11:45:11;7.40;99.90
76211;DHT22;65003;49.518;11.280;2023-12-20T11:47:37;7.40;99.90
76211;DHT22;65003;49.518;11.280;2023-12-20T11:50:04;7.30;99.90
76211;DHT22;65003;49.518;11.280;2023-12-20T11:52:30;7.20;99.90
76211;DHT22;65003;49.518;11.280;2023-12-20T11:54:57;7.20;99.90
76211;DHT22;65003;49.518;11.280;2023-12-20T11:57:24;7.30;99.90
76211;DHT22;65003;49.518;11.280;2023-12-20T11:59:50;7.30;99.90
76211;DHT22;65003;49.518;11.280;2023-12-20T12:02:17;7.30;99.90
76211;DHT22;65003;49.518;11.280;2023-12-20T12:04:43;7.20;99.90
76211;DHT22;65003;49.518;11.280;2023-12-20T12:07:10;7.10;99.90
76211;DHT22;65003;49.518;11.280;2023-12-20T12:09:37;7.10;99.90
76211;DHT22;65003;49.518;11.280;2023-12-20T12:12:03;7.10;99.90
76211;DHT22;65003;49.518;11.280;2023-12-20T12:14:30;7.10;99.90
76211;DHT22;65003;49.518;11.280;2023-12-20T12:16:57;7.10;99.90
76211;DHT22;65003;49.518;11.280;2023-12-20T12:19:24;7.10;99.90
76211;DHT22;65003;49.518;11.280;2023-12-20T12:21:50;7.20;99.90
76211;DHT22;65003;49.518;11.280;2023-12-20T12:24:20;7.10;99.90
76211;DHT22;65003;49.518;11.280;2023-12-20T12:26:49;7.10;99.90
76211;DHT22;65003;49.518;11.280;2023-12-20T12:29:10;7.20;99.90
76211;DHT22;65003;49.518;11.280;2023-12-20T12:31:36;7.20;99.90
76211;DHT22;65003;49.518;11.280;2023-12-20T12:34:03;7.20;99.90
76211;DHT22;65003;49.518;11.280;2023-12-20T12:36:30;7.20;99.90
76211;DHT22;65003;49.518;11.280;2023-12-20T12:38:57;7.10;99.90
76211;DHT22;65003;49.518;11.280;2023-12-20T12:41:23;7.10;99.90
76211;DHT22;65003;49.518;11.280;2023-12-20T12:43:49;7.20;99.90
76211;DHT22;65003;49.518;11.280;2023-12-20T12:46:16;7.10;99.90
76211;DHT22;65003;49.518;11.280;2023-12-20T12:48:43;7.10;99.90
76211;DHT22;65003;49.518;11.280;2023-12-20T12:51:09;7.10;99.90
76211;DHT22;65003;49.518;11.280;2023-12-20T12:53:36;7.10;99.90
76211;DHT22;65003;49.518;11.280;2023-12-20T12:56:03;7.20;99.90
76211;DHT22;65003;49.518;11.280;2023-12-20T12:58:29;7.10;99.90
76211;DHT22;65003;49.518;11.280;2023-12-20T13:00:56;7.10;99.90
76211;DHT22;65003;49.518;11.280;2023-12-20T13:03:22;7.10;99.90
76211;DHT22;65003;49.518;11.280;2023-12-20T13:05:49;7.10;99.90
76211;DHT22;65003;49.518;11.280;2023-12-20T13:08:16;7.10;99.90
76211;DHT22;65003;49.518;11.280;2023-12-20T13:10:42;7.00;99.90
76211;DHT22;65003;49.518;11.280;2023-12-20T13:13:09;7.00;99.90
76211;DHT22;65003;49.518;11.280;2023-12-20T13:15:35;7.10;99.90
76211;DHT22;65003;49.518;11.280;2023-12-20T13:18:02;7.10;99.90
76211;DHT22;65003;49.518;11.280;2023-12-20T13:20:29;7.10;99.90
76211;DHT22;65003;49.518;11.280;2023-12-20T13:22:55;7.00;99.90
76211;DHT22;65003;49.518;11.280;2023-12-20T13:25:22;6.90;99.90
76211;DHT22;65003;49.518;11.280;2023-12-20T13:27:48;6.80;99.90
76211;DHT22;65003;49.518;11.280;2023-12-20T13:30:16;6.80;99.90
76211;DHT22;65003;49.518;11.280;2023-12-20T13:32:41;6.80;99.90
76211;DHT22;65003;49.518;11.280;2023-12-20T13:35:08;6.90;99.90
76211;DHT22;65003;49.518;11.280;2023-12-20T13:37:35;6.90;99.90
76211;DHT22;65003;49.518;11.280;2023-12-20T13:40:01;6.90;99.90
76211;DHT22;65003;49.518;11.280;2023-12-20T13:42:28;6.90;99.90
76211;DHT22;65003;49.518;11.280;2023-12-20T13:44:54;6.90;99.90
76211;DHT22;65003;49.518;11.280;2023-12-20T13:47:21;6.90;99.90
76211;DHT22;65003;49.518;11.280;2023-12-20T13:49:48;7.00;99.90
76211;DHT22;65003;49.518;11.280;2023-12-20T13:52:14;6.90;99.90
76211;DHT22;65003;49.518;11.280;2023-12-20T13:54:41;6.80;99.90
76211;DHT22;65003;49.518;11.280;2023-12-20T13:57:08;6.70;99.90
76211;DHT22;65003;49.518;11.280;2023-12-20T13:59:34;6.60;99.90
76211;DHT22;65003;49.518;11.280;2023-12-20T14:02:01;6.60;99.90
76211;DHT22;65003;49.518;11.280;2023-12-20T14:04:27;6.50;99.90
76211;DHT22;65003;49.518;11.280;2023-12-20T14:06:54;6.60;99.90
76211;DHT22;65003;49.518;11.280;2023-12-20T14:09:20;6.60;99.90
76211;DHT22;65003;49.518;11.280;2023-12-20T14:11:47;6.70;99.90
76211;DHT22;65003;49.518;11.280;2023-12-20T14:14:14;6.70;99.90
76211;DHT22;65003;49.518;11.280;2023-12-20T14:16:40;6.80;99.90
76211;DHT22;65003;49.518;11.280;2023-12-20T14:19:07;6.80;99.90
76211;DHT22;65003;49.518;11.280;2023-12-20T14:21:33;6.70;99.90
76211;DHT22;65003;49.518;11.280;2023-12-20T14:24:00;6.80;99.90
76211;DHT22;65003;49.518;11.280;2023-12-20T14:26:27;6.80;99.90
76211;DHT22;65003;49.518;11.280;2023-12-20T14:28:53;6.70;99.90
76211;DHT22;65003;49.518;11.280;2023-12-20T14:31:20;6.60;99.90
76211;DHT22;65003;49.518;11.280;2023-12-20T14:33:47;6.50;99.90
76211;DHT22;65003;49.518;11.280;2023-12-20T14:36:13;6.50;99.90
76211;DHT22;65003;49.518;11.280;2023-12-20T14:38:40;6.50;99.90
76211;DHT22;65003;49.518;11.280;2023-12-20T14:41:06;6.50;99.90
76211;DHT22;65003;49.518;11.280;2023-12-20T14:43:33;6.40;99.90
76211;DHT22;65003;49.518;11.280;2023-12-20T14:45:59;6.50;99.90
76211;DHT22;65003;49.518;11.280;2023-12-20T14:48:26;6.50;99.90
76211;DHT22;65003;49.518;11.280;2023-12-20T14:50:53;6.50;99.90
76211;DHT22;65003;49.518;11.280;2023-12-20T14:53:19;6.50;99.90
76211;DHT22;65003;49.518;11.280;2023-12-20T14:55:46;6.40;99.90
76211;DHT22;65003;49.518;11.280;2023-12-20T14:58:12;6.40;99.90
76211;DHT22;65003;49.518;11.280;2023-12-20T15:00:39;6.40;99.90
76211;DHT22;65003;49.518;11.280;2023-12-20T15:03:06;6.40;99.90
76211;DHT22;65003;49.518;11.280;2023-12-20T15:05:32;6.40;99.90
76211;DHT22;65003;49.518;11.280;2023-12-20T15:07:59;6.30;99.90
76211;DHT22;65003;49.518;11.280;2023-12-20T15:10:25;6.30;99.90
76211;DHT22;65003;49.518;11.280;2023-12-20T15:12:52;6.30;99.90
76211;DHT22;65003;49.518;11.280;2023-12-20T15:15:19;6.30;99.90
76211;DHT22;65003;49.518;11.280;2023-12-20T15:17:45;6.30;99.90
76211;DHT22;65003;49.518;11.280;2023-12-20T15:20:12;6.30;99.90
76211;DHT22;65003;49.518;11.280;2023-12-20T15:22:38;6.30;99.90
76211;DHT22;65003;49.518;11.280;2023-12-20T15:25:05;6.30;99.90
76211;DHT22;65003;49.518;11.280;2023-12-20T15:27:32;6.20;99.90
76211;DHT22;65003;49.518;11.280;2023-12-20T15:29:59;6.20;99.90